Weather History for Antananarivo, Madagascar

Change the Weather History Date:

Tuesday, February 14, 2012

  Actual Average Record
Temperature  
Mean Temperature 64 °F -  
Max Temperature 67 °F 80 °F 86 °F (2003)
Min Temperature 61 °F 62 °F 32 °F (2007)
Degree Days  
Heating Degree Days 1    
Growing Degree Days 14 (Base 50)    
Moisture  
Dew Point 65 °F    
Average Humidity 100    
Maximum Humidity 100    
Minimum Humidity 92    
Precipitation  
Precipitation 1.26 in 0.32 in - ()
Sea Level Pressure  
Sea Level Pressure 29.70 in    
Wind  
Wind Speed 19 mph ()    
Max Wind Speed 38 mph    
Max Gust Speed 56 mph    
Visibility 2.9 miles    
Events Rain    
Averages and records for this station are not official NWS values.
T = Trace of Precipitation, MM = Missing Value Source: Averaged Metar Reports

Daily Weather History Graph

Daily Weather History Graph

Search for Another Location

Airport:

Trip Planner

Search our weather history database for the weather conditions in past years. The results will help you decide how hot, cold, wet, or windy it might be!

Date:

Astronomy

Feb. 14, 2012 Rise Set
Actual Time 5:42 AM EAT 6:26 PM EAT
Civil Twilight 5:19 AM EAT 6:48 PM EAT
Nautical Twilight 4:53 AM EAT 7:15 PM EAT
Astronomical Twilight 4:26 AM EAT 7:42 PM EAT
Moon 11:22 PM EAT (2/14) 11:52 AM EAT (2/14)
Length of Visible Light 13h 29m
Length of Day
12h 43m
Waning Gibbous, 54% of the Moon is Illuminated
Feb 14
Waning Gibbous
Feb 14
Last Quarter
Feb 22
New
Mar 1
First Quarter
Mar 8
Full

Hourly Weather History & Observations

Time (EAT) Temp. Dew Point Humidity Pressure Visibility Wind Dir Wind Speed Gust Speed Precip Events Conditions
12:00 AM 66.2 °F 66.2 °F 100% 29.74 in 6.2 mi SW 13.8 mph - N/A Rain Light Rain
12:27 AM 66.2 °F 66.2 °F 100% 29.74 in 6.2 mi WSW 12.7 mph 25.3 mph N/A Rain Light Rain
12:30 AM 66.2 °F 66.2 °F 100% 29.71 in 6.2 mi WSW 12.7 mph 25.3 mph N/A Rain Light Rain
1:00 AM 64.4 °F 64.4 °F 100% 29.71 in - WSW 18.4 mph 31.1 mph N/A Rain Light Rain
1:30 AM 64.4 °F 64.4 °F 100% 29.68 in 5.0 mi WSW 15.0 mph 26.5 mph N/A Rain Light Rain
1:35 AM 64.4 °F 64.4 °F 100% 29.65 in 5.0 mi WSW 17.3 mph 31.1 mph N/A Rain Light Rain
2:00 AM 64.4 °F 64.4 °F 100% 29.62 in 5.0 mi WSW 20.7 mph 35.7 mph N/A Rain Light Rain
2:27 AM 64.4 °F 64.4 °F 100% 29.59 in 2.5 mi WSW 19.6 mph 33.4 mph N/A Rain Rain
2:28 AM 64.4 °F 64.4 °F 100% 29.59 in 1.6 mi WSW 19.6 mph 33.4 mph N/A Rain Rain
2:30 AM 64.4 °F 64.4 °F 100% 29.59 in 1.6 mi WSW 20.7 mph 33.4 mph N/A Rain Rain
2:32 AM 64.4 °F 64.4 °F 100% 29.59 in 0.6 mi WSW 20.7 mph 33.4 mph N/A Rain Rain
2:34 AM 64.4 °F 64.4 °F 100% 29.59 in 0.6 mi West 23.0 mph 40.3 mph N/A Rain Rain
2:35 AM 64.4 °F 64.4 °F 100% 29.59 in 0.4 mi West 23.0 mph 40.3 mph N/A Rain Rain
2:45 AM 64.4 °F 64.4 °F 100% 29.59 in 0.5 mi WSW 23.0 mph 34.5 mph N/A Rain Rain
2:49 AM 64.4 °F 64.4 °F 100% 29.59 in 0.9 mi WSW 23.0 mph 35.7 mph N/A Rain Rain
2:56 AM 64.4 °F 64.4 °F 100% 29.56 in 1.9 mi WSW 21.9 mph 43.7 mph N/A Rain Rain
3:00 AM 65 °F 65 °F 100%  in 2 mi WSW 31.1 mph - - Rain Rain
3:00 AM 64.4 °F 64.4 °F 100% 29.56 in 1.9 mi WSW 20.7 mph 43.7 mph N/A Rain Rain
3:13 AM 64.4 °F 64.4 °F 100% 29.56 in 0.9 mi WSW 23.0 mph 40.3 mph N/A Rain Rain
3:15 AM 64.4 °F 64.4 °F 100% 29.56 in 0.5 mi WSW 24.2 mph 40.3 mph N/A Rain Rain
3:30 AM 64.4 °F 64.4 °F 100% 29.53 in 0.6 mi WSW 23.0 mph 36.8 mph N/A Rain Rain
3:44 AM 64.4 °F 64.4 °F 100% 29.53 in 0.9 mi WSW 26.5 mph 44.9 mph N/A Rain Rain
3:54 AM 64.4 °F 64.4 °F 100% 29.50 in 1.9 mi WSW 26.5 mph 44.9 mph N/A Rain Rain
4:00 AM 64.4 °F 64.4 °F 100% 29.50 in 2.5 mi WSW 26.5 mph 43.7 mph N/A Rain Rain
4:07 AM 64.4 °F 64.4 °F 100% 29.47 in 1.9 mi WSW 26.5 mph 43.7 mph N/A Rain Rain
4:13 AM 64.4 °F 64.4 °F 100% 29.47 in 0.9 mi WSW 25.3 mph 46.0 mph N/A Rain Rain
4:19 AM 64.4 °F 64.4 °F 100% 29.47 in 0.5 mi WSW 27.6 mph 47.2 mph N/A Rain Rain
4:30 AM 64.4 °F 64.4 °F 100% 29.44 in 0.6 mi WSW 28.8 mph 52.9 mph N/A Rain Rain
4:33 AM 64.4 °F 64.4 °F 100% 29.44 in 0.9 mi WSW 29.9 mph 52.9 mph N/A Rain Rain
4:36 AM 64.4 °F 64.4 °F 100% 29.44 in 1.9 mi WSW 31.1 mph 52.9 mph N/A Rain Rain
5:00 AM 64.4 °F 64.4 °F 100% 29.42 in 2.5 mi WSW 31.1 mph 56.4 mph N/A Rain Rain
5:30 AM 64.4 °F 64.4 °F 100% 29.42 in 2.5 mi West 29.9 mph 47.2 mph N/A Rain Rain
5:35 AM 64.4 °F 64.4 °F 100% 29.42 in 1.9 mi WSW 29.9 mph 47.2 mph N/A Rain Rain
6:00 AM 64.4 °F 64.4 °F 100% 29.39 in 1.9 mi WSW 29.9 mph 52.9 mph N/A Rain Rain
6:07 AM 64.4 °F 64.4 °F 100% 29.36 in 0.9 mi WSW 33.4 mph 52.9 mph N/A Rain Rain
6:30 AM 64.4 °F 64.4 °F 100% 29.36 in 0.6 mi West 36.8 mph 55.2 mph N/A Rain Rain
7:00 AM 62.6 °F 62.6 °F 100% 29.36 in 0.6 mi WSW 24.2 mph 38.0 mph N/A Rain Rain
7:29 AM 64.4 °F 64.4 °F 100% 29.33 in 0.6 mi West 26.5 mph 46.0 mph N/A Rain Heavy Rain
7:30 AM 64.4 °F 64.4 °F 100% 29.33 in 0.6 mi West 27.6 mph 46.0 mph N/A Rain Heavy Rain
8:00 AM 64.4 °F 64.4 °F 100% 29.36 in 0.6 mi WNW 33.4 mph 55.2 mph N/A Rain Heavy Rain
8:30 AM 64.4 °F 64.4 °F 100% 29.44 in 0.6 mi NW 36.8 mph 55.2 mph N/A Rain Heavy Rain
9:00 AM 65 °F 65 °F 100%  in 1 mi WNW 38.0 mph - - Rain Heavy Rain
9:00 AM 64.4 °F 64.4 °F 100% 29.56 in 0.6 mi North 33.4 mph 48.3 mph N/A Rain Rain
9:30 AM 64.4 °F 64.4 °F 100% 29.65 in 0.6 mi North 27.6 mph 43.7 mph N/A Rain Rain
9:38 AM 64.4 °F 64.4 °F 100% 29.68 in 0.6 mi North 31.1 mph 55.2 mph N/A Rain Rain
10:00 AM 66.2 °F 66.2 °F 100% 29.71 in 0.6 mi North 26.5 mph 39.1 mph N/A Rain Rain
10:30 AM 66.2 °F 66.2 °F 100% 29.77 in 0.6 mi NNE 20.7 mph - N/A Rain Rain
11:00 AM 64.4 °F 64.4 °F 100% 29.80 in 0.7 mi NNE 25.3 mph - N/A Rain Rain
11:30 AM 64.4 °F 64.4 °F 100% 29.83 in 0.7 mi NNE 21.9 mph - N/A Rain Rain
11:58 AM 64.4 °F 64.4 °F 100% 29.83 in 1.2 mi North 20.7 mph - N/A Rain Rain
12:00 PM 66.2 °F 66.2 °F 100% 29.83 in 1.2 mi North 21.9 mph 33.4 mph N/A Rain Rain
12:30 PM 66.2 °F 66.2 °F 100% 29.86 in 1.2 mi North 24.2 mph 38.0 mph N/A Rain Rain
1:00 PM 64.4 °F 64.4 °F 100% 29.86 in 1.2 mi NNE 21.9 mph - N/A Rain Rain
1:26 PM 64.4 °F 64.4 °F 100% 29.86 in 2.5 mi North 24.2 mph 35.7 mph N/A Rain Light Rain
1:30 PM 64.4 °F 64.4 °F 100% 29.86 in 2.5 mi North 24.2 mph 35.7 mph N/A Rain Light Rain
2:00 PM 66.2 °F 66.2 °F 100% 29.89 in 3.1 mi North 23.0 mph 34.5 mph N/A Rain Light Rain
2:30 PM 64.4 °F 64.4 °F 100% 29.89 in 3.1 mi North 19.6 mph - N/A Rain Light Rain
2:47 PM 66.2 °F 66.2 °F 100% 29.89 in 3.7 mi North 20.7 mph 33.4 mph N/A Rain Light Rain
3:00 PM 66 °F 64 °F 92%  in 4 mi NE 18.4 mph - - Rain Light Rain
3:00 PM 64.4 °F 64.4 °F 100% 29.92 in 4.3 mi North 18.4 mph - N/A Rain Light Rain
3:30 PM 66.2 °F 66.2 °F 100% 29.92 in 4.3 mi North 17.3 mph 28.8 mph N/A Rain Light Rain
4:00 PM 68.0 °F 68.0 °F 100% 29.95 in 5.6 mi North 18.4 mph - N/A   Overcast
4:22 PM 68.0 °F 68.0 °F 100% 29.95 in 6.2 mi North 12.7 mph - N/A   Overcast
4:30 PM 68.0 °F 68.0 °F 100% 29.95 in 6.2 mi North 13.8 mph - N/A   Overcast
5:00 PM 66.2 °F 66.2 °F 100% 29.98 in 5.6 mi North 15.0 mph - N/A Rain Light Rain
5:30 PM 66.2 °F 66.2 °F 100% 29.98 in 5.6 mi North 15.0 mph - N/A Rain Light Rain
6:00 PM 66.2 °F 66.2 °F 100% 30.01 in 5.6 mi North 12.7 mph - N/A Rain Light Rain
6:30 PM 66.2 °F 66.2 °F 100% 30.01 in 6.2 mi North 10.4 mph - N/A Rain Light Rain
7:00 PM 66.2 °F 66.2 °F 100% 30.04 in 6.2 mi North 9.2 mph - N/A Rain Light Rain
7:30 PM 64.4 °F 64.4 °F 100% 30.04 in 6.2 mi North 6.9 mph - N/A   Mostly Cloudy
8:00 PM 64.4 °F 64.4 °F 100% 30.04 in 6.2 mi North 5.8 mph - N/A   Mostly Cloudy
8:30 PM 66.2 °F 66.2 °F 100% 30.06 in 6.2 mi NNW 6.9 mph - N/A   Mostly Cloudy
9:00 PM 65 °F 64 °F 93%  in 12 mi North 4.6 mph - -   Partly Cloudy
9:00 PM 66.2 °F 66.2 °F 100% 30.06 in 6.2 mi North 6.9 mph - N/A   Mostly Cloudy
9:30 PM 64.4 °F 64.4 °F 100% 30.06 in 6.2 mi Variable 2.3 mph - N/A   Mostly Cloudy
10:00 PM 64.4 °F 64.4 °F 100% 30.09 in 6.2 mi NE 3.5 mph - N/A   Mostly Cloudy
10:30 PM 64.4 °F 64.4 °F 100% 30.09 in 6.2 mi Variable 2.3 mph - N/A   Mostly Cloudy
11:00 PM 64.4 °F 64.4 °F 100% 30.09 in 6.2 mi North 4.6 mph - N/A   Mostly Cloudy
11:30 PM 64.4 °F 64.4 °F 100% 30.06 in 6.2 mi Variable 2.3 mph - N/A   Mostly Cloudy